createdAt,value
2023-09-21T00:02:52.775Z,19.36
2023-09-21T00:05:57.862Z,19.34
2023-09-21T00:09:00.749Z,19.42
2023-09-21T00:12:03.942Z,19.35
2023-09-21T00:15:07.972Z,19.38
2023-09-21T00:18:10.916Z,19.40
2023-09-21T00:21:17.082Z,19.48
2023-09-21T00:24:23.381Z,19.49
2023-09-21T00:27:29.950Z,19.57
2023-09-21T00:30:32.698Z,19.57
2023-09-21T00:33:40.729Z,19.60
2023-09-21T00:36:46.530Z,19.58
2023-09-21T00:39:49.741Z,19.56
2023-09-21T00:42:57.457Z,19.53
2023-09-21T00:46:03.204Z,19.59
2023-09-21T00:49:08.080Z,19.64
2023-09-21T00:52:13.410Z,19.63
2023-09-21T00:55:40.699Z,19.56
2023-09-21T00:58:55.479Z,19.49
2023-09-21T01:01:58.885Z,19.53
2023-09-21T01:05:01.679Z,19.49
2023-09-21T01:08:06.585Z,19.54
2023-09-21T01:11:15.981Z,19.44
2023-09-21T01:14:18.876Z,19.48
2023-09-21T01:17:22.374Z,19.36
2023-09-21T01:20:29.279Z,19.42
2023-09-21T01:23:47.724Z,19.34
2023-09-21T01:26:50.839Z,19.25
2023-09-21T01:29:53.731Z,19.31
2023-09-21T01:32:56.778Z,19.35
2023-09-21T01:35:59.569Z,19.22
2023-09-21T01:39:02.367Z,19.14
2023-09-21T01:42:05.461Z,19.15
2023-09-21T01:45:15.113Z,19.12
2023-09-21T01:48:21.597Z,19.23
2023-09-21T01:51:24.667Z,19.18
2023-09-21T01:54:28.758Z,19.26
2023-09-21T01:57:31.523Z,19.26
2023-09-21T02:00:38.031Z,19.22
2023-09-21T02:03:40.950Z,19.24
2023-09-21T02:06:43.801Z,19.27
2023-09-21T02:09:46.589Z,19.29
2023-09-21T02:12:57.653Z,19.20
2023-09-21T02:16:00.564Z,19.22
2023-09-21T02:19:05.190Z,19.15
2023-09-21T02:22:08.892Z,19.15
2023-09-21T02:25:11.982Z,19.18
2023-09-21T02:28:14.720Z,19.19
2023-09-21T02:31:17.614Z,19.26
2023-09-21T02:34:20.409Z,19.34
2023-09-21T02:37:23.158Z,19.37
2023-09-21T02:40:26.133Z,19.38
2023-09-21T02:43:30.563Z,19.42
2023-09-21T02:46:34.277Z,19.34
2023-09-21T02:49:37.076Z,19.37
2023-09-21T02:52:39.933Z,19.30
2023-09-21T02:55:44.162Z,19.35
2023-09-21T02:58:47.579Z,19.30
2023-09-21T03:01:51.441Z,19.30
2023-09-21T03:04:56.569Z,19.33
2023-09-21T03:07:59.317Z,19.38
2023-09-21T03:11:02.103Z,19.33
2023-09-21T03:14:05.984Z,19.19
2023-09-21T03:17:09.345Z,19.23
2023-09-21T03:20:14.262Z,19.15
2023-09-21T03:23:17.795Z,19.17
2023-09-21T03:26:22.874Z,19.24
2023-09-21T03:29:26.633Z,19.21
2023-09-21T03:32:30.563Z,19.17
2023-09-21T03:35:33.812Z,19.24
2023-09-21T03:38:36.551Z,19.19
2023-09-21T03:41:39.439Z,19.09
2023-09-21T03:44:43.577Z,19.04
2023-09-21T03:47:47.950Z,19.04
2023-09-21T03:50:53.574Z,19.00
2023-09-21T03:54:00.674Z,18.96
2023-09-21T03:57:03.540Z,18.94
2023-09-21T04:00:26.367Z,18.90
2023-09-21T04:03:30.768Z,18.88
2023-09-21T04:06:36.189Z,18.87
2023-09-21T04:09:38.925Z,18.81
2023-09-21T04:12:41.927Z,18.76
2023-09-21T04:15:44.681Z,18.74
2023-09-21T04:18:47.663Z,18.68
2023-09-21T04:21:52.255Z,18.71
2023-09-21T04:24:55.353Z,18.78
2023-09-21T04:27:59.081Z,18.80
2023-09-21T04:31:02.595Z,18.84
2023-09-21T04:34:05.961Z,18.83
2023-09-21T04:37:10.486Z,18.83
2023-09-21T04:40:13.978Z,18.82
2023-09-21T04:43:18.868Z,18.81
2023-09-21T04:46:21.839Z,18.81
2023-09-21T04:49:26.332Z,18.83
2023-09-21T04:52:32.130Z,18.87
2023-09-21T04:55:37.300Z,18.87
2023-09-21T04:58:40.079Z,18.81
2023-09-21T05:01:43.037Z,18.82
2023-09-21T05:04:46.167Z,18.89
2023-09-21T05:07:48.954Z,18.91
2023-09-21T05:10:52.319Z,19.01
2023-09-21T05:13:55.162Z,19.00
2023-09-21T05:16:59.912Z,18.96
2023-09-21T05:20:02.828Z,19.00
2023-09-21T05:23:05.988Z,19.14
2023-09-21T05:26:08.749Z,19.06
2023-09-21T05:29:12.376Z,19.06
2023-09-21T05:32:15.266Z,19.05
2023-09-21T05:35:18.239Z,19.28
2023-09-21T05:38:21.409Z,19.41
2023-09-21T05:41:24.193Z,19.55
2023-09-21T05:44:27.212Z,19.57
2023-09-21T05:47:30.822Z,19.67
2023-09-21T05:50:34.332Z,19.79
2023-09-21T05:53:37.416Z,19.88
2023-09-21T05:56:40.576Z,19.82
2023-09-21T05:59:43.455Z,20.00
2023-09-21T06:02:46.453Z,20.27
2023-09-21T06:05:49.450Z,20.36
2023-09-21T06:08:54.278Z,20.32
2023-09-21T06:11:57.215Z,20.75
2023-09-21T06:15:00.110Z,20.75
2023-09-21T06:18:03.114Z,20.64
2023-09-21T06:21:08.028Z,20.86
2023-09-21T06:24:11.604Z,21.29
2023-09-21T06:27:15.836Z,22.31
2023-09-21T06:30:19.260Z,22.30
2023-09-21T06:33:26.070Z,21.92
2023-09-21T06:36:30.624Z,22.66
2023-09-21T06:39:33.989Z,23.37
2023-09-21T06:42:37.066Z,23.11
2023-09-21T06:45:41.023Z,24.08
2023-09-21T06:48:44.395Z,23.22
2023-09-21T06:51:48.236Z,23.04
2023-09-21T06:54:51.156Z,23.31
2023-09-21T06:57:56.560Z,23.38
2023-09-21T07:01:00.034Z,24.01
2023-09-21T07:04:05.567Z,24.07
2023-09-21T07:07:09.620Z,23.89
2023-09-21T07:10:16.022Z,23.44
2023-09-21T07:13:22.118Z,23.36
2023-09-21T07:16:25.203Z,23.20
2023-09-21T07:19:28.032Z,23.34
2023-09-21T07:22:30.816Z,23.27
2023-09-21T07:25:33.649Z,23.58
2023-09-21T07:28:36.804Z,23.65
2023-09-21T07:31:39.797Z,23.64
2023-09-21T07:34:42.750Z,23.81
2023-09-21T07:37:47.615Z,24.33
2023-09-21T07:40:50.924Z,25.76
2023-09-21T07:43:53.929Z,25.35
2023-09-21T07:46:58.505Z,25.87
2023-09-21T07:50:01.409Z,25.46
2023-09-21T07:53:05.572Z,24.85
2023-09-21T07:56:13.372Z,23.91
2023-09-21T07:59:17.371Z,24.37
2023-09-21T08:02:20.459Z,23.92
2023-09-21T08:05:24.158Z,24.18
2023-09-21T08:08:27.479Z,24.59
2023-09-21T08:11:30.554Z,24.40
2023-09-21T08:14:36.265Z,24.01
2023-09-21T08:17:42.444Z,24.35
2023-09-21T08:20:45.438Z,24.37
2023-09-21T08:23:48.375Z,23.99
2023-09-21T08:26:51.563Z,24.17
2023-09-21T08:29:54.349Z,24.35
2023-09-21T08:32:57.187Z,24.48
2023-09-21T08:36:01.531Z,24.47
2023-09-21T08:39:06.112Z,24.39
2023-09-21T08:42:11.246Z,24.92
2023-09-21T08:45:16.572Z,25.04
2023-09-21T08:48:22.254Z,25.92
2023-09-21T08:51:27.035Z,27.26
2023-09-21T08:54:30.692Z,26.97
2023-09-21T08:57:33.668Z,26.89
2023-09-21T09:00:37.428Z,26.89
2023-09-21T09:03:41.298Z,26.18
2023-09-21T09:06:44.422Z,25.46
2023-09-21T09:09:47.763Z,25.52
2023-09-21T09:13:06.785Z,25.32
2023-09-21T09:16:09.741Z,27.24
2023-09-21T09:19:13.567Z,28.42
2023-09-21T09:22:17.523Z,29.26
2023-09-21T09:25:22.536Z,32.66
2023-09-21T09:28:27.633Z,32.81
2023-09-21T09:31:30.646Z,33.92
2023-09-21T09:34:33.456Z,36.32
2023-09-21T09:37:38.830Z,35.52
2023-09-21T09:40:44.104Z,33.28
2023-09-21T09:43:53.895Z,33.13
2023-09-21T09:46:59.210Z,32.30
2023-09-21T09:50:04.370Z,31.17
2023-09-21T09:53:12.379Z,30.50
2023-09-21T09:56:16.421Z,30.46
2023-09-21T09:59:22.828Z,29.13
2023-09-21T10:02:32.245Z,29.53
2023-09-21T10:05:37.429Z,29.00
2023-09-21T10:08:41.113Z,28.38
2023-09-21T10:11:48.360Z,28.96
2023-09-21T10:14:51.542Z,31.32
2023-09-21T10:17:58.694Z,31.52
2023-09-21T10:21:32.355Z,31.51
2023-09-21T10:24:35.777Z,33.75
2023-09-21T10:27:40.918Z,35.62
2023-09-21T10:30:44.805Z,33.69
2023-09-21T10:34:02.758Z,34.35
2023-09-21T10:37:12.541Z,33.36
2023-09-21T10:40:21.406Z,33.17
2023-09-21T10:43:39.168Z,37.73
2023-09-21T10:46:45.234Z,38.44
2023-09-21T10:49:50.068Z,38.91
2023-09-21T10:52:57.118Z,38.20
2023-09-21T10:56:01.151Z,39.72
2023-09-21T10:59:03.988Z,39.12
2023-09-21T11:02:08.193Z,40.87
2023-09-21T11:05:12.253Z,39.61
2023-09-21T11:08:16.915Z,37.05
2023-09-21T11:11:23.456Z,36.86
2023-09-21T11:14:26.497Z,36.01
2023-09-21T11:17:30.363Z,35.53
2023-09-21T11:20:33.650Z,38.28
2023-09-21T11:23:40.194Z,38.84
2023-09-21T11:26:55.809Z,40.68
2023-09-21T11:29:58.898Z,40.81
2023-09-21T11:33:01.989Z,40.16
2023-09-21T11:36:22.838Z,40.05
2023-09-21T11:39:29.147Z,39.73
2023-09-21T11:42:34.611Z,38.20
2023-09-21T11:45:43.702Z,38.82
2023-09-21T11:48:50.186Z,39.24
2023-09-21T11:51:54.685Z,37.10
2023-09-21T11:54:58.197Z,38.87
2023-09-21T11:58:08.720Z,37.32
2023-09-21T12:01:11.899Z,34.71
2023-09-21T12:04:18.288Z,33.32
2023-09-21T12:07:21.547Z,33.22
2023-09-21T12:10:25.727Z,32.61
2023-09-21T12:13:31.743Z,33.83
2023-09-21T12:16:35.618Z,34.14
2023-09-21T12:19:40.594Z,32.69
2023-09-21T12:22:43.756Z,32.62
2023-09-21T12:25:47.879Z,32.52
2023-09-21T12:28:50.939Z,33.46
2023-09-21T12:31:59.913Z,34.29
2023-09-21T12:35:07.944Z,32.73
2023-09-21T12:38:14.486Z,33.21
2023-09-21T12:41:17.396Z,34.52
2023-09-21T12:44:20.495Z,34.48
2023-09-21T12:47:23.643Z,35.23
2023-09-21T12:50:27.949Z,36.59
2023-09-21T12:53:31.242Z,33.91
2023-09-21T12:56:35.332Z,32.66
2023-09-21T12:59:38.460Z,32.98
2023-09-21T13:02:43.558Z,32.48
2023-09-21T13:05:49.000Z,31.92
2023-09-21T13:08:51.863Z,32.10
2023-09-21T13:11:56.306Z,33.23
2023-09-21T13:14:59.843Z,35.35
2023-09-21T13:18:03.986Z,34.60
2023-09-21T13:21:11.664Z,33.91
2023-09-21T13:24:14.938Z,34.88
2023-09-21T13:27:18.844Z,34.33
2023-09-21T13:30:22.185Z,33.00
2023-09-21T13:33:25.847Z,34.27
2023-09-21T13:39:51.305Z,31.32
2023-09-21T13:42:55.045Z,31.34
2023-09-21T13:46:00.911Z,31.03
2023-09-21T13:49:04.384Z,30.90
2023-09-21T13:52:08.302Z,30.83
2023-09-21T13:55:18.362Z,30.73
2023-09-21T13:58:23.872Z,30.15
2023-09-21T14:01:28.567Z,30.24
2023-09-21T14:04:31.813Z,29.81
2023-09-21T14:07:36.036Z,29.65
2023-09-21T14:10:40.246Z,28.90
2023-09-21T14:13:43.543Z,28.95
2023-09-21T14:16:47.589Z,28.76
2023-09-21T14:19:50.967Z,28.74
2023-09-21T14:22:56.336Z,28.89
2023-09-21T14:25:59.130Z,28.62
2023-09-21T14:29:01.861Z,28.62
2023-09-21T14:32:05.477Z,28.57
2023-09-21T14:35:14.540Z,28.51
2023-09-21T14:38:18.205Z,28.36
2023-09-21T14:41:20.929Z,28.52
2023-09-21T14:44:23.949Z,28.27
2023-09-21T14:47:32.065Z,28.36
2023-09-21T14:50:35.321Z,28.18
2023-09-21T14:53:38.334Z,28.26
2023-09-21T14:56:46.330Z,28.29
2023-09-21T14:59:49.364Z,28.32
2023-09-21T15:02:54.056Z,28.38
2023-09-21T15:05:57.055Z,28.12
2023-09-21T15:09:00.346Z,28.11
2023-09-21T15:12:04.893Z,28.00
2023-09-21T15:15:09.186Z,27.99
2023-09-21T15:18:15.335Z,27.86
2023-09-21T15:21:19.406Z,27.52
2023-09-21T15:24:23.701Z,27.69
2023-09-21T15:27:32.820Z,27.45
2023-09-21T15:30:43.010Z,27.49
2023-09-21T15:33:56.280Z,27.35
2023-09-21T15:36:59.373Z,27.06
2023-09-21T15:40:02.523Z,27.03
2023-09-21T15:43:06.117Z,27.05
2023-09-21T15:46:09.292Z,26.87
2023-09-21T15:49:13.083Z,26.54
2023-09-21T15:52:16.772Z,26.47
2023-09-21T15:55:19.811Z,26.41
2023-09-21T15:58:22.520Z,26.39
2023-09-21T16:01:25.820Z,26.28
2023-09-21T16:04:29.487Z,26.29
2023-09-21T16:07:32.680Z,26.36
2023-09-21T16:10:35.610Z,26.41
2023-09-21T16:13:38.835Z,26.35
2023-09-21T16:16:41.997Z,26.25
2023-09-21T16:19:45.141Z,26.17
2023-09-21T16:22:48.950Z,26.08
2023-09-21T16:25:52.203Z,25.93
2023-09-21T16:28:55.268Z,25.86
2023-09-21T16:32:01.281Z,25.68
2023-09-21T16:35:05.526Z,25.56
2023-09-21T16:38:09.114Z,25.46
2023-09-21T16:41:12.304Z,25.36
2023-09-21T16:44:14.982Z,25.35
2023-09-21T16:47:21.944Z,25.26
2023-09-21T16:50:24.735Z,25.11
2023-09-21T16:53:29.078Z,24.55
2023-09-21T16:56:34.518Z,23.63
2023-09-21T16:59:37.480Z,23.04
2023-09-21T17:02:40.901Z,22.78
2023-09-21T17:05:43.722Z,22.82
2023-09-21T17:08:47.368Z,22.93
2023-09-21T17:11:50.194Z,22.99
2023-09-21T17:14:56.194Z,22.83
2023-09-21T17:18:00.004Z,22.66
2023-09-21T17:21:06.813Z,22.42
2023-09-21T17:24:10.284Z,21.77
2023-09-21T17:27:13.173Z,21.13
2023-09-21T17:30:16.686Z,20.75
2023-09-21T17:33:20.844Z,20.41
2023-09-21T17:36:25.115Z,20.27
2023-09-21T17:39:42.937Z,20.22
2023-09-21T17:42:47.450Z,20.10
2023-09-21T17:45:50.716Z,20.10
2023-09-21T17:48:57.184Z,20.18
2023-09-21T17:55:54.019Z,20.02
2023-09-21T17:58:57.420Z,20.03
2023-09-21T18:02:00.654Z,20.06
2023-09-21T18:05:04.378Z,20.08
2023-09-21T18:08:07.648Z,20.07
2023-09-21T18:11:10.721Z,20.03
2023-09-21T18:14:13.846Z,20.03
2023-09-21T18:17:17.144Z,19.91
2023-09-21T18:20:22.990Z,19.85
2023-09-21T18:23:26.849Z,19.83
2023-09-21T18:26:29.935Z,19.92
2023-09-21T18:29:34.175Z,19.91
2023-09-21T18:32:38.300Z,19.95
2023-09-21T18:35:41.871Z,19.92
2023-09-21T18:38:46.518Z,19.85
2023-09-21T18:41:50.018Z,19.90
2023-09-21T18:44:52.809Z,19.89
2023-09-21T18:47:55.722Z,19.96
2023-09-21T18:51:01.039Z,19.97
2023-09-21T18:54:06.671Z,19.84
2023-09-21T18:57:10.511Z,19.74
2023-09-21T19:00:15.928Z,19.63
2023-09-21T19:03:19.881Z,19.56
2023-09-21T19:06:23.411Z,19.67
2023-09-21T19:09:26.544Z,19.56
2023-09-21T19:12:30.239Z,19.48
2023-09-21T19:15:33.593Z,19.44
2023-09-21T19:18:36.855Z,19.35
2023-09-21T19:21:39.650Z,19.32
2023-09-21T19:24:43.365Z,19.30
2023-09-21T19:27:49.241Z,19.25
2023-09-21T19:30:52.427Z,19.22
2023-09-21T19:33:56.660Z,19.36
2023-09-21T19:36:59.780Z,19.41
2023-09-21T19:40:03.105Z,19.24
2023-09-21T19:43:06.297Z,19.23
2023-09-21T19:46:09.446Z,19.24
2023-09-21T19:49:14.104Z,19.21
2023-09-21T19:52:16.931Z,19.29
2023-09-21T19:55:19.915Z,19.26
2023-09-21T19:58:23.038Z,19.12
2023-09-21T20:01:26.399Z,19.14
2023-09-21T20:04:29.501Z,19.02
2023-09-21T20:07:32.884Z,18.84
2023-09-21T20:10:35.952Z,18.72
2023-09-21T20:13:39.217Z,18.62
2023-09-21T20:16:42.224Z,18.52
2023-09-21T20:19:45.076Z,18.40
2023-09-21T20:22:47.940Z,18.31
2023-09-21T20:25:50.921Z,18.20
2023-09-21T20:28:53.698Z,18.16
2023-09-21T20:31:57.275Z,18.16
2023-09-21T20:35:00.189Z,18.08
2023-09-21T20:38:03.557Z,18.08
2023-09-21T20:41:06.453Z,18.03
2023-09-21T20:44:09.615Z,17.95
2023-09-21T20:47:12.402Z,17.88
2023-09-21T20:50:15.486Z,17.86
2023-09-21T20:53:18.736Z,17.87
2023-09-21T20:56:21.475Z,17.86
2023-09-21T20:59:24.200Z,17.94
2023-09-21T21:02:27.377Z,17.91
2023-09-21T21:05:31.037Z,17.86
2023-09-21T21:08:35.198Z,17.78
2023-09-21T21:11:38.240Z,17.74
2023-09-21T21:14:42.171Z,17.64
2023-09-21T21:17:45.230Z,17.65
2023-09-21T21:20:48.060Z,17.65
2023-09-21T21:23:51.045Z,17.54
2023-09-21T21:26:54.587Z,17.48
2023-09-21T21:29:57.607Z,17.35
2023-09-21T21:33:00.697Z,17.34
2023-09-21T21:36:04.136Z,17.27
2023-09-21T21:39:07.263Z,17.23
2023-09-21T21:42:11.274Z,17.25
2023-09-21T21:45:14.786Z,17.32
2023-09-21T21:48:17.837Z,17.30
2023-09-21T21:51:20.648Z,17.13
2023-09-21T21:54:23.566Z,17.08
2023-09-21T21:57:26.804Z,17.08
2023-09-21T22:00:32.809Z,17.02
2023-09-21T22:03:36.060Z,16.99
2023-09-21T22:06:39.204Z,16.99
2023-09-21T22:09:42.519Z,16.95
2023-09-21T22:12:45.792Z,16.95
2023-09-21T22:15:49.409Z,16.89
2023-09-21T22:18:52.393Z,16.87
2023-09-21T22:21:56.822Z,16.80
2023-09-21T22:25:01.281Z,16.79
2023-09-21T22:28:05.279Z,16.73
2023-09-21T22:31:13.300Z,16.79
2023-09-21T22:34:16.547Z,16.69
2023-09-21T22:37:19.592Z,16.65
2023-09-21T22:40:22.600Z,16.65
2023-09-21T22:43:26.078Z,16.67
2023-09-21T22:46:29.193Z,16.62
2023-09-21T22:49:32.774Z,16.61
2023-09-21T22:52:35.917Z,16.62
2023-09-21T22:55:39.222Z,16.62
2023-09-21T22:58:41.985Z,16.57
2023-09-21T23:01:45.143Z,16.59
2023-09-21T23:04:51.922Z,16.54
2023-09-21T23:07:57.321Z,16.52
2023-09-21T23:11:04.332Z,16.48
2023-09-21T23:14:07.389Z,16.47
2023-09-21T23:17:10.554Z,16.43
2023-09-21T23:20:16.746Z,16.40
2023-09-21T23:23:19.953Z,16.35
2023-09-21T23:26:22.997Z,16.32
2023-09-21T23:29:26.045Z,16.30
2023-09-21T23:32:29.344Z,16.28
2023-09-21T23:35:33.728Z,16.24
2023-09-21T23:38:36.578Z,16.20
2023-09-21T23:41:39.638Z,16.19
2023-09-21T23:44:42.882Z,16.18
2023-09-21T23:47:45.963Z,16.18
2023-09-21T23:50:49.046Z,16.17
2023-09-21T23:53:52.658Z,16.24
2023-09-21T23:56:55.898Z,16.22
2023-09-21T23:59:59.685Z,16.23
